Angus, Minnesota
Current Conditions -  °F | °C
As of 1:34 PM on Thursday 30 Oct 2014 (Local Time) from KCKN Reporting Station
Overcast Overcast  
Wind Chill: 26°   Ceiling: 2500
Heat Index: 37°   Visibility: 10mi
Dew Point: 28°   Wind: 26mph
Humidity: 70%   Direction: 350°N
Pressure: 30.31"   Gusts: NA
Location:  48.08°N, 96.7°W
Report Text: KCKN 301834Z AUTO 35023KT 10SM OVC025 03/M02 A3031 RMK AO2
Loading
Personal Weather Stations






























Interactive Weather Map
Tropical Storm Tracking
New forecast layout! Learn more

10-Day Weather Forecast

Advertisements
Track Severe Weather on mobile